createdAt,value
2022-08-03T00:01:39.195Z,13.88
2022-08-03T00:04:07.464Z,15.07
2022-08-03T00:06:37.156Z,13.40
2022-08-03T00:09:06.124Z,9.02
2022-08-03T00:11:33.247Z,15.63
2022-08-03T00:14:00.680Z,15.27
2022-08-03T00:16:27.644Z,10.27
2022-08-03T00:18:54.518Z,17.52
2022-08-03T00:21:21.435Z,12.13
2022-08-03T00:23:51.397Z,8.77
2022-08-03T00:26:20.378Z,9.93
2022-08-03T00:28:47.356Z,9.05
2022-08-03T00:31:14.291Z,11.13
2022-08-03T00:33:59.720Z,9.52
2022-08-03T00:36:28.902Z,8.63
2022-08-03T00:38:56.857Z,8.90
2022-08-03T00:41:23.847Z,10.48
2022-08-03T00:43:50.950Z,9.75
2022-08-03T00:46:21.675Z,15.95
2022-08-03T00:48:52.556Z,11.40
2022-08-03T00:51:21.834Z,9.98
2022-08-03T00:53:49.542Z,8.88
2022-08-03T00:56:17.278Z,9.98
2022-08-03T00:58:45.418Z,8.48
2022-08-03T01:01:12.870Z,9.20
2022-08-03T01:03:40.158Z,12.38
2022-08-03T01:06:18.704Z,7.97
2022-08-03T01:09:07.805Z,21.70
2022-08-03T01:12:04.717Z,9.65
2022-08-03T01:14:38.527Z,15.50
2022-08-03T01:17:14.462Z,11.02
2022-08-03T01:19:46.709Z,12.55
2022-08-03T01:22:41.241Z,11.02
2022-08-03T01:25:29.795Z,12.57
2022-08-03T01:28:03.663Z,12.13
2022-08-03T01:30:33.812Z,10.35
2022-08-03T01:33:03.381Z,17.80
2022-08-03T01:38:16.016Z,11.98
2022-08-03T01:40:47.240Z,10.38
2022-08-03T01:44:26.462Z,12.32
2022-08-03T01:46:07.808Z,17.98
2022-08-03T01:48:39.903Z,11.52
2022-08-03T01:51:09.379Z,11.32
2022-08-03T01:53:39.062Z,11.38
2022-08-03T01:56:07.620Z,11.38
2022-08-03T01:58:36.981Z,19.33
2022-08-03T02:01:05.511Z,10.13
2022-08-03T02:03:36.755Z,12.40
2022-08-03T02:06:59.797Z,9.82
2022-08-03T02:08:55.601Z,10.73
2022-08-03T02:11:22.830Z,11.18
2022-08-03T02:13:51.249Z,17.30
2022-08-03T02:16:19.502Z,12.32
2022-08-03T02:18:48.296Z,18.90
2022-08-03T02:21:55.854Z,10.33
2022-08-03T02:24:04.856Z,14.27
2022-08-03T02:26:32.362Z,16.15
2022-08-03T02:29:05.685Z,8.32
2022-08-03T02:31:37.720Z,8.70
2022-08-03T02:34:10.588Z,8.70
2022-08-03T02:36:39.818Z,9.75
2022-08-03T02:39:10.076Z,7.72
2022-08-03T02:41:53.092Z,9.48
2022-08-03T02:44:25.898Z,12.10
2022-08-03T02:46:56.171Z,11.27
2022-08-03T02:49:40.624Z,12.93
2022-08-03T02:52:16.926Z,10.98
2022-08-03T02:54:46.377Z,11.93
2022-08-03T02:57:15.459Z,8.70
2022-08-03T02:59:44.426Z,15.30
2022-08-03T03:02:12.833Z,13.50
2022-08-03T03:05:01.311Z,11.05
2022-08-03T03:07:28.870Z,13.00
2022-08-03T03:09:58.570Z,10.38
2022-08-03T03:12:27.070Z,15.15
2022-08-03T03:14:54.260Z,15.02
2022-08-03T03:17:22.085Z,14.23
2022-08-03T03:19:51.323Z,10.23
2022-08-03T03:22:19.446Z,11.15
2022-08-03T03:24:48.207Z,10.93
2022-08-03T03:27:16.702Z,12.00
2022-08-03T03:29:44.246Z,10.43
2022-08-03T03:32:11.231Z,12.93
2022-08-03T03:34:38.437Z,9.52
2022-08-03T03:37:05.600Z,11.23
2022-08-03T03:39:32.539Z,9.98
2022-08-03T03:42:01.166Z,10.65
2022-08-03T03:44:31.468Z,15.77
2022-08-03T03:46:58.499Z,9.10
2022-08-03T03:49:26.667Z,10.30
2022-08-03T03:51:55.063Z,20.27
2022-08-03T03:54:22.115Z,41.30
2022-08-03T03:56:53.651Z,37.90
2022-08-03T03:59:20.525Z,57.63
2022-08-03T04:01:47.513Z,56.03
2022-08-03T04:04:44.715Z,28.83
2022-08-03T04:07:30.388Z,20.23
2022-08-03T04:10:16.428Z,32.20
2022-08-03T04:12:50.100Z,19.75
2022-08-03T04:15:21.862Z,34.75
2022-08-03T04:17:50.744Z,20.20
2022-08-03T04:20:20.977Z,22.00
2022-08-03T04:22:51.179Z,40.88
2022-08-03T04:25:21.122Z,120.93
2022-08-03T04:28:07.793Z,212.88
2022-08-03T04:30:47.649Z,219.75
2022-08-03T04:33:16.554Z,145.40
2022-08-03T04:36:01.190Z,155.38
2022-08-03T04:38:36.132Z,118.10
2022-08-03T04:41:03.899Z,109.93
2022-08-03T04:43:33.775Z,45.70
2022-08-03T04:46:01.951Z,36.97
2022-08-03T04:48:29.354Z,45.63
2022-08-03T04:50:56.642Z,28.08
2022-08-03T04:53:23.729Z,32.10
2022-08-03T04:55:50.635Z,32.60
2022-08-03T04:58:17.596Z,34.13
2022-08-03T05:00:45.760Z,13.88
2022-08-03T05:03:19.522Z,9.70
2022-08-03T05:05:53.145Z,10.02
2022-08-03T05:08:29.447Z,12.15
2022-08-03T05:10:59.569Z,13.68
2022-08-03T05:13:26.838Z,21.48
2022-08-03T05:15:53.902Z,9.40
2022-08-03T05:18:21.246Z,17.80
2022-08-03T05:20:48.153Z,11.68
2022-08-03T05:23:15.011Z,10.02
2022-08-03T05:25:49.608Z,12.75
2022-08-03T05:28:17.231Z,11.02
2022-08-03T05:30:44.334Z,14.18
2022-08-03T05:33:11.530Z,10.70
2022-08-03T05:36:00.651Z,15.18
2022-08-03T05:38:28.613Z,10.02
2022-08-03T05:41:22.580Z,10.57
2022-08-03T05:43:46.939Z,9.35
2022-08-03T05:46:13.777Z,9.35
2022-08-03T05:48:42.252Z,9.48
2022-08-03T05:51:11.861Z,9.20
2022-08-03T05:53:42.950Z,19.63
2022-08-03T05:56:13.601Z,11.88
2022-08-03T05:58:47.732Z,12.77
2022-08-03T06:01:16.996Z,13.07
2022-08-03T06:03:44.631Z,12.25
2022-08-03T06:06:11.900Z,10.70
2022-08-03T06:08:39.203Z,9.35
2022-08-03T06:11:06.115Z,9.45
2022-08-03T06:13:33.358Z,15.57
2022-08-03T06:16:00.262Z,10.77
2022-08-03T06:18:27.300Z,8.75
2022-08-03T06:20:55.059Z,19.63
2022-08-03T06:23:22.141Z,11.10
2022-08-03T06:25:49.107Z,11.98
2022-08-03T06:28:51.631Z,14.68
2022-08-03T06:31:03.785Z,10.55
2022-08-03T06:34:30.197Z,10.00
2022-08-03T06:36:20.837Z,14.40
2022-08-03T06:38:47.933Z,13.77
2022-08-03T06:41:14.902Z,11.63
2022-08-03T06:44:03.856Z,10.90
2022-08-03T06:46:29.491Z,11.85
2022-08-03T06:48:56.851Z,15.70
2022-08-03T06:52:04.568Z,12.30
2022-08-03T06:54:11.082Z,11.88
2022-08-03T06:56:38.028Z,8.40
2022-08-03T06:59:05.141Z,11.57
2022-08-03T07:01:32.079Z,13.68
2022-08-03T07:03:58.978Z,8.70
2022-08-03T07:06:25.865Z,11.93
2022-08-03T07:08:56.504Z,13.80
2022-08-03T07:11:26.144Z,11.38
2022-08-03T07:13:52.974Z,8.75
2022-08-03T07:16:20.234Z,15.50
2022-08-03T07:18:47.190Z,9.90
2022-08-03T07:21:14.336Z,18.65
2022-08-03T07:23:41.216Z,8.98
2022-08-03T07:26:08.071Z,11.98
2022-08-03T07:28:34.960Z,7.20
2022-08-03T07:31:01.842Z,12.13
2022-08-03T07:33:28.780Z,8.93
2022-08-03T07:35:55.816Z,7.55
2022-08-03T07:38:22.667Z,8.93
2022-08-03T07:40:49.592Z,8.00
2022-08-03T07:43:17.840Z,9.38
2022-08-03T07:45:44.777Z,6.95
2022-08-03T07:48:12.499Z,8.90
2022-08-03T07:50:39.862Z,8.60
2022-08-03T07:53:06.778Z,5.85
2022-08-03T07:55:33.892Z,5.85
2022-08-03T07:58:00.799Z,11.15
2022-08-03T08:00:27.680Z,7.15
2022-08-03T08:02:54.508Z,7.97
2022-08-03T08:05:21.402Z,7.35
2022-08-03T08:07:51.582Z,7.50
2022-08-03T08:10:19.025Z,8.45
2022-08-03T08:12:46.641Z,12.23
2022-08-03T08:15:15.338Z,10.10
2022-08-03T08:17:50.248Z,11.18
2022-08-03T08:20:27.950Z,9.00
2022-08-03T08:22:58.234Z,8.63
2022-08-03T08:25:28.022Z,8.57
2022-08-03T08:28:29.372Z,11.05
2022-08-03T08:30:41.788Z,9.85
2022-08-03T08:33:15.579Z,10.82
2022-08-03T08:35:51.398Z,8.68
2022-08-03T08:38:18.301Z,9.23
2022-08-03T08:40:45.359Z,11.38
2022-08-03T08:43:12.244Z,8.15
2022-08-03T08:45:40.813Z,9.68
2022-08-03T08:48:09.678Z,11.77
2022-08-03T08:50:38.929Z,6.53
2022-08-03T08:53:09.683Z,8.73
2022-08-03T08:55:59.289Z,7.32
2022-08-03T08:58:28.774Z,14.30
2022-08-03T09:00:56.234Z,9.27
2022-08-03T09:03:29.295Z,8.90
2022-08-03T09:06:00.399Z,7.97
2022-08-03T09:08:27.299Z,7.80
2022-08-03T09:10:54.185Z,13.73
2022-08-03T09:13:21.382Z,10.63
2022-08-03T09:16:00.592Z,9.93
2022-08-03T09:18:32.406Z,7.07
2022-08-03T09:21:33.920Z,8.32
2022-08-03T09:24:05.860Z,9.20
2022-08-03T09:26:38.522Z,11.90
2022-08-03T09:29:14.751Z,9.20
2022-08-03T09:31:47.283Z,8.80
2022-08-03T09:34:16.392Z,11.18
2022-08-03T09:36:47.672Z,11.65
2022-08-03T09:39:41.281Z,8.68
2022-08-03T09:42:23.628Z,11.32
2022-08-03T09:44:52.036Z,8.18
2022-08-03T09:47:33.166Z,11.93
2022-08-03T09:50:07.009Z,7.57
2022-08-03T09:52:50.223Z,8.60
2022-08-03T09:56:32.706Z,8.35
2022-08-03T09:58:12.909Z,12.65
2022-08-03T10:00:55.027Z,8.63
2022-08-03T10:03:23.421Z,8.68
2022-08-03T10:05:50.417Z,13.50
2022-08-03T10:08:19.722Z,12.07
2022-08-03T10:10:48.698Z,54.97
2022-08-03T10:16:23.783Z,9.68
2022-08-03T10:18:31.196Z,11.95
2022-08-03T10:21:08.234Z,9.68
2022-08-03T10:23:36.184Z,20.13
2022-08-03T10:26:05.628Z,10.88
2022-08-03T10:28:44.735Z,10.35
2022-08-03T10:31:14.238Z,7.93
2022-08-03T10:33:52.786Z,9.05
2022-08-03T10:38:55.346Z,8.98
2022-08-03T10:41:26.233Z,7.05
2022-08-03T10:44:10.731Z,11.88
2022-08-03T10:46:44.310Z,14.98
2022-08-03T10:49:34.356Z,6.93
2022-08-03T10:52:10.382Z,8.32
2022-08-03T10:55:07.847Z,7.57
2022-08-03T10:57:58.653Z,6.72
2022-08-03T11:00:28.256Z,5.97
2022-08-03T11:03:14.722Z,10.77
2022-08-03T11:05:47.121Z,12.02
2022-08-03T11:08:25.258Z,8.15
2022-08-03T11:10:55.317Z,8.80
2022-08-03T11:13:25.216Z,6.82
2022-08-03T11:16:00.020Z,13.25
2022-08-03T11:18:30.070Z,8.38
2022-08-03T11:20:59.235Z,9.38
2022-08-03T11:24:05.307Z,5.10
2022-08-03T11:26:33.872Z,8.70
2022-08-03T11:29:30.933Z,9.15
2022-08-03T11:31:58.178Z,6.40
2022-08-03T11:34:25.627Z,9.20
2022-08-03T11:37:37.439Z,6.15
2022-08-03T11:40:06.222Z,12.07
2022-08-03T11:42:36.703Z,7.45
2022-08-03T11:45:07.859Z,6.18
2022-08-03T11:47:51.092Z,9.50
2022-08-03T11:50:20.148Z,5.03
2022-08-03T11:52:48.250Z,4.85
2022-08-03T11:55:20.470Z,7.00
2022-08-03T11:59:19.212Z,12.18
2022-08-03T12:00:35.578Z,6.95
2022-08-03T12:03:12.136Z,7.30
2022-08-03T12:05:53.111Z,7.82
2022-08-03T12:08:19.923Z,7.88
2022-08-03T12:10:50.233Z,5.65
2022-08-03T12:14:43.733Z,7.88
2022-08-03T12:16:07.101Z,8.82
2022-08-03T12:18:34.341Z,8.90
2022-08-03T12:21:10.420Z,4.78
2022-08-03T12:23:38.470Z,11.65
2022-08-03T12:26:08.563Z,8.57
2022-08-03T12:28:38.405Z,6.35
2022-08-03T12:31:07.594Z,7.82
2022-08-03T12:33:58.737Z,5.43
2022-08-03T12:36:26.974Z,10.75
2022-08-03T12:38:59.633Z,6.53
2022-08-03T12:41:40.967Z,4.53
2022-08-03T12:44:09.468Z,8.88
2022-08-03T12:46:47.017Z,8.73
2022-08-03T12:49:17.409Z,6.43
2022-08-03T12:51:44.243Z,5.80
2022-08-03T12:54:24.687Z,5.70
2022-08-03T12:57:05.259Z,4.78
2022-08-03T12:59:35.165Z,6.85
2022-08-03T13:02:24.171Z,4.72
2022-08-03T13:04:52.928Z,7.20
2022-08-03T13:07:21.228Z,8.40
2022-08-03T13:09:57.202Z,6.55
2022-08-03T13:12:26.308Z,9.48
2022-08-03T13:14:58.801Z,6.00
2022-08-03T13:17:26.410Z,5.80
2022-08-03T13:19:53.727Z,5.68
2022-08-03T13:22:30.929Z,6.20
2022-08-03T13:24:58.417Z,7.45
2022-08-03T13:28:03.619Z,11.35
2022-08-03T13:30:13.368Z,10.55
2022-08-03T13:32:40.394Z,5.65
2022-08-03T13:35:08.806Z,6.03
2022-08-03T13:37:37.502Z,11.50
2022-08-03T13:40:06.941Z,12.80
2022-08-03T13:42:36.021Z,8.18
2022-08-03T13:45:04.101Z,7.57
2022-08-03T13:47:31.212Z,7.83
2022-08-03T13:50:01.118Z,14.68
2022-08-03T13:52:38.333Z,10.48
2022-08-03T13:55:06.855Z,9.52
2022-08-03T13:58:05.277Z,10.23
2022-08-03T14:00:29.001Z,7.07
2022-08-03T14:03:09.144Z,4.75
2022-08-03T14:05:40.348Z,4.20
2022-08-03T14:08:08.002Z,7.78
2022-08-03T14:10:40.747Z,4.47
2022-08-03T14:13:08.173Z,4.78
2022-08-03T14:15:37.584Z,8.63
2022-08-03T14:18:06.824Z,8.77
2022-08-03T14:20:38.746Z,6.93
2022-08-03T14:23:15.039Z,158.05
2022-08-03T14:25:43.654Z,6.90
2022-08-03T14:28:23.194Z,7.22
2022-08-03T14:30:54.443Z,8.77
2022-08-03T14:33:21.802Z,8.40
2022-08-03T14:35:49.476Z,7.75
2022-08-03T14:38:16.803Z,5.18
2022-08-03T14:40:44.165Z,5.03
2022-08-03T14:43:11.133Z,6.45
2022-08-03T14:45:39.223Z,8.43
2022-08-03T14:50:29.739Z,11.60
2022-08-03T14:50:53.748Z,5.45
2022-08-03T14:53:21.181Z,5.90
2022-08-03T14:55:51.526Z,11.75
2022-08-03T14:58:21.085Z,8.68
2022-08-03T15:00:49.503Z,3.70
2022-08-03T15:03:17.413Z,10.02
2022-08-03T15:05:44.786Z,6.57
2022-08-03T15:08:13.777Z,5.55
2022-08-03T15:13:15.708Z,7.72
2022-08-03T15:15:42.746Z,8.00
2022-08-03T15:18:09.770Z,5.68
2022-08-03T15:20:44.288Z,7.53
2022-08-03T15:23:13.498Z,8.85
2022-08-03T15:26:28.246Z,8.40
2022-08-03T15:28:27.251Z,6.97
2022-08-03T15:30:54.229Z,4.57
2022-08-03T15:33:21.204Z,8.15
2022-08-03T15:35:48.129Z,6.78
2022-08-03T15:38:16.396Z,8.25
2022-08-03T15:40:43.249Z,8.23
2022-08-03T15:43:10.104Z,15.23
2022-08-03T15:45:37.632Z,8.07
2022-08-03T15:48:07.388Z,5.85
2022-08-03T15:50:34.333Z,6.38
2022-08-03T15:53:03.351Z,5.22
2022-08-03T15:55:31.258Z,6.45
2022-08-03T15:59:03.434Z,7.88
2022-08-03T16:00:45.439Z,8.57
2022-08-03T16:03:12.425Z,7.20
2022-08-03T16:05:39.419Z,8.82
2022-08-03T16:08:09.142Z,7.32
2022-08-03T16:10:40.818Z,18.95
2022-08-03T16:13:08.079Z,6.93
2022-08-03T16:15:38.332Z,9.85
2022-08-03T16:18:08.868Z,8.60
2022-08-03T16:20:35.936Z,4.50
2022-08-03T16:23:11.620Z,11.60
2022-08-03T16:25:49.089Z,6.75
2022-08-03T16:28:17.440Z,10.60
2022-08-03T16:30:46.346Z,16.83
2022-08-03T16:33:16.807Z,9.05
2022-08-03T16:35:45.074Z,13.48
2022-08-03T16:38:16.791Z,13.23
2022-08-03T16:40:47.209Z,12.48
2022-08-03T16:43:18.526Z,7.68
2022-08-03T16:45:47.041Z,6.00
2022-08-03T16:48:15.322Z,7.30
2022-08-03T16:50:42.978Z,9.63
2022-08-03T16:53:16.353Z,8.80
2022-08-03T16:55:52.107Z,12.80
2022-08-03T16:58:41.601Z,9.25
2022-08-03T17:01:21.754Z,11.25
2022-08-03T17:04:01.438Z,12.43
2022-08-03T17:06:35.890Z,4.80
2022-08-03T17:09:08.823Z,13.32
2022-08-03T17:11:38.444Z,12.32
2022-08-03T17:14:12.268Z,15.63
2022-08-03T17:16:39.916Z,10.20
2022-08-03T17:19:23.990Z,10.80
2022-08-03T17:22:13.669Z,9.57
2022-08-03T17:24:54.178Z,6.30
2022-08-03T17:28:50.815Z,12.90
2022-08-03T17:30:16.131Z,10.90
2022-08-03T17:32:57.425Z,8.02
2022-08-03T17:38:09.019Z,6.43
2022-08-03T17:40:38.011Z,17.73
2022-08-03T17:44:12.831Z,27.60
2022-08-03T17:45:54.794Z,40.58
2022-08-03T17:48:25.055Z,16.50
2022-08-03T17:50:57.989Z,16.48
2022-08-03T17:53:29.771Z,49.63
2022-08-03T17:56:40.838Z,41.35
2022-08-03T18:03:01.410Z,40.35
2022-08-03T18:06:09.027Z,26.25
2022-08-03T18:08:32.377Z,61.78
2022-08-03T18:11:09.597Z,33.63
2022-08-03T18:14:04.840Z,16.25
2022-08-03T18:16:56.687Z,20.75
2022-08-03T18:20:01.352Z,19.83
2022-08-03T18:22:13.331Z,14.80
2022-08-03T18:24:42.293Z,14.45
2022-08-03T18:27:11.154Z,11.48
2022-08-03T18:29:40.969Z,18.38
2022-08-03T18:32:13.517Z,21.95
2022-08-03T18:34:54.351Z,19.63
2022-08-03T18:37:25.463Z,28.73
2022-08-03T18:39:58.004Z,21.73
2022-08-03T18:42:27.041Z,22.75
2022-08-03T18:44:56.912Z,9.60
2022-08-03T18:47:52.070Z,12.05
2022-08-03T18:50:31.666Z,15.27
2022-08-03T18:54:03.075Z,17.20
2022-08-03T18:56:44.298Z,15.20
2022-08-03T18:59:30.400Z,36.35
2022-08-03T19:02:09.258Z,14.07
2022-08-03T19:04:47.818Z,16.38
2022-08-03T19:07:18.047Z,20.73
2022-08-03T19:09:54.760Z,12.05
2022-08-03T19:12:32.300Z,9.90
2022-08-03T19:15:13.448Z,21.27
2022-08-03T19:17:50.370Z,19.23
2022-08-03T19:20:22.381Z,29.98
2022-08-03T19:22:52.881Z,14.38
2022-08-03T19:25:19.982Z,18.23
2022-08-03T19:28:06.152Z,21.27
2022-08-03T19:30:46.279Z,18.48
2022-08-03T19:33:20.831Z,39.47
2022-08-03T19:35:55.355Z,29.55
2022-08-03T19:38:28.486Z,29.95
2022-08-03T19:41:03.924Z,62.67
2022-08-03T19:43:52.875Z,46.03
2022-08-03T19:46:30.668Z,41.63
2022-08-03T19:49:04.978Z,11.95
2022-08-03T19:52:00.968Z,30.00
2022-08-03T19:54:52.932Z,22.08
2022-08-03T19:57:24.481Z,16.65
2022-08-03T19:59:52.759Z,24.55
2022-08-03T20:02:26.637Z,16.08
2022-08-03T20:04:56.774Z,23.77
2022-08-03T20:07:25.171Z,24.42
2022-08-03T20:09:54.505Z,21.75
2022-08-03T20:12:29.296Z,23.65
2022-08-03T20:14:58.222Z,36.22
2022-08-03T20:17:55.607Z,19.80
2022-08-03T20:20:13.896Z,16.27
2022-08-03T20:22:45.526Z,14.98
2022-08-03T20:26:27.947Z,12.40
2022-08-03T20:29:00.078Z,17.70
2022-08-03T20:31:36.551Z,15.77
2022-08-03T20:34:04.312Z,12.02
2022-08-03T20:36:31.159Z,8.35
2022-08-03T20:38:58.411Z,11.43
2022-08-03T20:41:26.773Z,12.90
2022-08-03T20:43:53.765Z,11.35
2022-08-03T20:46:35.392Z,11.07
2022-08-03T20:49:08.658Z,12.73
2022-08-03T20:51:49.836Z,21.48
2022-08-03T20:54:28.818Z,16.80
2022-08-03T20:56:58.508Z,15.02
2022-08-03T20:59:47.184Z,24.38
2022-08-03T21:02:19.742Z,16.80
2022-08-03T21:04:56.120Z,18.92
2022-08-03T21:07:24.612Z,9.15
2022-08-03T21:10:15.470Z,13.63
2022-08-03T21:13:04.819Z,72.15
2022-08-03T21:13:22.590Z,11.70
2022-08-03T21:16:05.453Z,14.38
2022-08-03T21:18:49.230Z,54.55
2022-08-03T21:21:19.317Z,30.95
2022-08-03T21:23:50.507Z,34.60
2022-08-03T21:26:27.407Z,20.55
2022-08-03T21:28:56.651Z,16.80
2022-08-03T21:31:26.591Z,15.30
2022-08-03T21:34:05.220Z,20.02
2022-08-03T21:36:35.191Z,16.98
2022-08-03T21:39:05.368Z,13.93
2022-08-03T21:41:33.227Z,19.20
2022-08-03T21:44:01.396Z,27.90
2022-08-03T21:46:35.356Z,20.00
2022-08-03T21:50:04.786Z,23.00
2022-08-03T21:51:59.297Z,18.48
2022-08-03T21:54:41.949Z,28.73
2022-08-03T21:57:37.723Z,14.68
2022-08-03T22:00:19.804Z,12.63
2022-08-03T22:02:58.260Z,21.33
2022-08-03T22:05:42.644Z,21.02
2022-08-03T22:08:13.391Z,18.55
2022-08-03T22:10:40.582Z,18.65
2022-08-03T22:13:07.536Z,12.85
2022-08-03T22:15:34.458Z,14.98
2022-08-03T22:18:04.456Z,26.70
2022-08-03T22:20:31.422Z,18.40
2022-08-03T22:23:02.428Z,11.65
2022-08-03T22:25:32.226Z,20.35
2022-08-03T22:28:21.998Z,9.98
2022-08-03T22:30:49.800Z,15.93
2022-08-03T22:33:16.853Z,11.90
2022-08-03T22:35:47.853Z,15.98
2022-08-03T22:38:17.046Z,14.50
2022-08-03T22:40:44.206Z,12.02
2022-08-03T22:43:10.955Z,15.98
2022-08-03T22:45:45.832Z,18.90
2022-08-03T22:48:26.942Z,10.32
2022-08-03T22:50:54.789Z,16.23
2022-08-03T22:53:22.621Z,12.30
2022-08-03T22:55:50.419Z,22.88
2022-08-03T22:58:19.638Z,10.68
2022-08-03T23:01:08.025Z,15.15
2022-08-03T23:03:58.943Z,14.32
2022-08-03T23:06:30.248Z,12.85
2022-08-03T23:08:58.348Z,17.13
2022-08-03T23:11:27.666Z,13.65
2022-08-03T23:13:58.913Z,9.75
2022-08-03T23:16:28.583Z,12.30
2022-08-03T23:18:58.897Z,11.88
2022-08-03T23:21:59.828Z,10.85
2022-08-03T23:24:26.073Z,10.90
2022-08-03T23:27:01.825Z,23.55
2022-08-03T23:29:30.615Z,18.02
2022-08-03T23:31:59.503Z,19.42
2022-08-03T23:34:46.654Z,9.80
2022-08-03T23:37:15.545Z,25.40
2022-08-03T23:39:46.179Z,15.50
2022-08-03T23:42:20.550Z,14.75
2022-08-03T23:44:53.060Z,9.23
2022-08-03T23:47:20.032Z,14.73
2022-08-03T23:49:46.988Z,12.95
2022-08-03T23:52:47.100Z,14.50
2022-08-03T23:55:22.125Z,11.80
2022-08-03T23:58:29.186Z,16.08
